createdAt,value
2022-10-14T00:00:05.801Z,0.00
2022-10-14T00:01:05.791Z,0.00
2022-10-14T00:02:05.905Z,0.00
2022-10-14T00:03:05.759Z,0.00
2022-10-14T00:04:05.743Z,0.00
2022-10-14T00:05:05.736Z,0.00
2022-10-14T00:06:05.736Z,0.00
2022-10-14T00:07:05.695Z,0.00
2022-10-14T00:08:05.700Z,0.00
2022-10-14T00:09:05.680Z,0.00
2022-10-14T00:10:05.699Z,0.00
2022-10-14T00:11:05.678Z,0.00
2022-10-14T00:12:05.647Z,0.00
2022-10-14T00:13:05.631Z,0.00
2022-10-14T00:14:05.632Z,0.00
2022-10-14T00:15:05.614Z,0.00
2022-10-14T00:16:05.640Z,0.00
2022-10-14T00:17:05.593Z,0.00
2022-10-14T00:18:05.583Z,0.00
2022-10-14T00:19:05.576Z,0.00
2022-10-14T00:20:05.562Z,0.00
2022-10-14T00:21:05.566Z,0.00
2022-10-14T00:22:05.535Z,0.00
2022-10-14T00:23:05.522Z,0.00
2022-10-14T00:24:05.525Z,0.00
2022-10-14T00:25:05.504Z,0.00
2022-10-14T00:26:05.509Z,0.00
2022-10-14T00:27:05.492Z,0.00
2022-10-14T00:28:05.477Z,0.00
2022-10-14T00:29:05.456Z,0.00
2022-10-14T00:30:05.453Z,0.00
2022-10-14T00:31:05.442Z,0.00
2022-10-14T00:32:05.472Z,0.00
2022-10-14T00:33:05.419Z,0.00
2022-10-14T00:34:05.415Z,0.00
2022-10-14T00:35:05.399Z,0.00
2022-10-14T00:36:05.417Z,0.00
2022-10-14T00:37:05.374Z,0.00
2022-10-14T00:38:05.373Z,0.00
2022-10-14T00:39:05.362Z,0.00
2022-10-14T00:40:05.340Z,0.00
2022-10-14T00:41:05.346Z,0.00
2022-10-14T00:42:05.322Z,0.00
2022-10-14T00:43:05.311Z,0.00
2022-10-14T00:44:05.300Z,0.00
2022-10-14T00:45:05.286Z,0.00
2022-10-14T00:46:05.299Z,0.00
2022-10-14T00:47:05.263Z,0.00
2022-10-14T00:48:05.275Z,0.00
2022-10-14T00:49:05.245Z,0.00
2022-10-14T00:50:05.245Z,0.00
2022-10-14T00:51:05.271Z,0.00
2022-10-14T00:52:05.224Z,0.00
2022-10-14T00:53:05.202Z,0.00
2022-10-14T00:54:05.196Z,0.00
2022-10-14T00:55:05.174Z,0.00
2022-10-14T00:56:05.195Z,0.00
2022-10-14T00:57:05.185Z,0.00
2022-10-14T00:58:05.148Z,0.00
2022-10-14T00:59:05.137Z,0.00
2022-10-14T01:00:05.131Z,0.00
2022-10-14T01:01:05.182Z,0.00
2022-10-14T01:02:05.104Z,0.00
2022-10-14T01:03:05.104Z,0.00
2022-10-14T01:04:05.096Z,0.00
2022-10-14T01:05:05.121Z,0.00
2022-10-14T01:06:05.078Z,0.00
2022-10-14T01:07:05.043Z,0.00
2022-10-14T01:08:05.040Z,0.00
2022-10-14T01:09:05.051Z,0.00
2022-10-14T01:10:05.096Z,0.00
2022-10-14T01:11:05.011Z,0.00
2022-10-14T01:12:27.474Z,0.00
2022-10-14T01:13:05.981Z,0.00
2022-10-14T01:14:04.972Z,0.00
2022-10-14T01:15:05.108Z,0.00
2022-10-14T01:16:04.958Z,0.00
2022-10-14T01:17:04.939Z,0.00
2022-10-14T01:18:04.928Z,0.00
2022-10-14T01:19:04.913Z,0.00
2022-10-14T01:20:04.918Z,0.00
2022-10-14T01:21:04.907Z,0.00
2022-10-14T01:22:04.882Z,0.00
2022-10-14T01:23:04.868Z,0.00
2022-10-14T01:24:04.865Z,0.00
2022-10-14T01:25:04.852Z,0.00
2022-10-14T01:26:04.869Z,0.00
2022-10-14T01:27:04.838Z,0.00
2022-10-14T01:28:04.824Z,0.00
2022-10-14T01:29:04.813Z,0.00
2022-10-14T01:30:04.794Z,0.00
2022-10-14T01:31:04.800Z,0.00
2022-10-14T01:32:04.773Z,0.00
2022-10-14T01:33:04.763Z,0.00
2022-10-14T01:34:04.746Z,0.00
2022-10-14T01:35:04.752Z,0.00
2022-10-14T01:36:04.747Z,0.00
2022-10-14T01:37:04.729Z,0.00
2022-10-14T01:38:04.712Z,0.00
2022-10-14T01:39:04.701Z,0.00
2022-10-14T01:40:04.679Z,0.00
2022-10-14T01:41:04.680Z,0.00
2022-10-14T01:42:04.681Z,0.00
2022-10-14T01:43:04.651Z,0.00
2022-10-14T01:44:04.644Z,0.00
2022-10-14T01:45:04.635Z,0.00
2022-10-14T01:46:04.619Z,0.00
2022-10-14T01:47:04.618Z,0.00
2022-10-14T01:48:04.591Z,0.00
2022-10-14T01:49:04.587Z,0.00
2022-10-14T01:50:04.574Z,0.00
2022-10-14T01:51:04.565Z,0.00
2022-10-14T01:52:04.588Z,0.00
2022-10-14T01:53:04.542Z,0.00
2022-10-14T01:54:04.533Z,0.00
2022-10-14T01:55:04.523Z,0.00
2022-10-14T01:56:04.533Z,0.00
2022-10-14T01:57:04.510Z,0.00
2022-10-14T01:58:04.491Z,0.00
2022-10-14T01:59:04.478Z,0.00
2022-10-14T02:00:04.472Z,0.00
2022-10-14T02:01:04.485Z,0.00
2022-10-14T02:02:04.487Z,0.00
2022-10-14T02:03:04.436Z,0.00
2022-10-14T02:04:04.426Z,0.00
2022-10-14T02:05:04.417Z,0.00
2022-10-14T02:06:11.462Z,0.00
2022-10-14T02:07:04.387Z,0.00
2022-10-14T02:08:04.386Z,0.00
2022-10-14T02:09:04.361Z,0.00
2022-10-14T02:10:04.351Z,0.00
2022-10-14T02:11:04.350Z,0.00
2022-10-14T02:12:04.331Z,0.00
2022-10-14T02:13:04.322Z,0.00
2022-10-14T02:14:04.309Z,0.00
2022-10-14T02:15:04.296Z,0.00
2022-10-14T02:16:04.298Z,0.00
2022-10-14T02:17:04.273Z,0.00
2022-10-14T02:18:04.262Z,0.00
2022-10-14T02:19:04.252Z,0.00
2022-10-14T02:20:04.242Z,0.00
2022-10-14T02:21:04.240Z,0.00
2022-10-14T02:22:04.219Z,0.00
2022-10-14T02:23:04.210Z,0.00
2022-10-14T02:24:04.244Z,0.00
2022-10-14T02:25:04.187Z,0.00
2022-10-14T02:26:04.242Z,0.00
2022-10-14T02:27:04.170Z,0.00
2022-10-14T02:28:04.156Z,0.00
2022-10-14T02:29:04.146Z,0.00
2022-10-14T02:30:04.141Z,0.00
2022-10-14T02:31:04.122Z,0.00
2022-10-14T02:32:04.114Z,0.00
2022-10-14T02:33:04.113Z,0.00
2022-10-14T02:34:04.091Z,0.00
2022-10-14T02:35:04.092Z,0.00
2022-10-14T02:36:04.067Z,0.00
2022-10-14T02:37:04.059Z,0.00
2022-10-14T02:38:04.046Z,0.00
2022-10-14T02:39:04.045Z,0.00
2022-10-14T02:40:04.068Z,0.00
2022-10-14T02:41:04.016Z,0.00
2022-10-14T02:42:04.004Z,0.00
2022-10-14T02:43:03.996Z,0.00
2022-10-14T02:44:03.983Z,0.00
2022-10-14T02:45:03.979Z,0.00
2022-10-14T02:46:03.975Z,0.00
2022-10-14T02:47:03.952Z,0.00
2022-10-14T02:48:03.941Z,0.00
2022-10-14T02:49:03.930Z,0.00
2022-10-14T02:50:03.928Z,0.00
2022-10-14T02:51:03.909Z,0.00
2022-10-14T02:52:03.898Z,0.00
2022-10-14T02:53:03.886Z,0.00
2022-10-14T02:54:03.880Z,0.00
2022-10-14T02:55:03.875Z,0.00
2022-10-14T02:56:03.871Z,0.00
2022-10-14T02:57:03.845Z,0.00
2022-10-14T02:58:03.864Z,0.00
2022-10-14T02:59:03.828Z,0.00
2022-10-14T03:00:03.823Z,0.00
2022-10-14T03:01:03.803Z,0.00
2022-10-14T03:02:03.861Z,0.00
2022-10-14T03:03:03.785Z,0.00
2022-10-14T03:04:03.768Z,0.00
2022-10-14T03:05:03.773Z,0.00
2022-10-14T03:06:03.745Z,0.00
2022-10-14T03:07:03.738Z,0.00
2022-10-14T03:08:03.723Z,0.00
2022-10-14T03:09:03.714Z,0.00
2022-10-14T03:10:03.716Z,0.00
2022-10-14T03:11:03.695Z,0.00
2022-10-14T03:12:03.697Z,0.00
2022-10-14T03:13:03.689Z,0.00
2022-10-14T03:14:03.710Z,0.00
2022-10-14T03:15:03.667Z,0.00
2022-10-14T03:16:03.685Z,0.00
2022-10-14T03:17:03.626Z,0.00
2022-10-14T03:18:03.617Z,0.00
2022-10-14T03:19:03.605Z,0.00
2022-10-14T03:20:03.607Z,0.00
2022-10-14T03:21:03.584Z,0.00
2022-10-14T03:22:03.570Z,0.00
2022-10-14T03:23:03.563Z,0.00
2022-10-14T03:24:03.548Z,0.00
2022-10-14T03:25:03.552Z,0.00
2022-10-14T03:26:03.529Z,0.00
2022-10-14T03:27:03.517Z,0.00
2022-10-14T03:28:03.526Z,0.00
2022-10-14T03:29:03.496Z,0.00
2022-10-14T03:30:03.496Z,0.00
2022-10-14T03:31:03.474Z,0.00
2022-10-14T03:32:03.463Z,0.00
2022-10-14T03:33:03.451Z,0.00
2022-10-14T03:34:03.443Z,0.00
2022-10-14T03:35:03.445Z,0.00
2022-10-14T03:36:03.424Z,0.00
2022-10-14T03:37:03.408Z,0.00
2022-10-14T03:38:03.403Z,0.00
2022-10-14T03:39:03.387Z,0.00
2022-10-14T03:40:03.385Z,0.00
2022-10-14T03:41:03.365Z,0.00
2022-10-14T03:42:03.352Z,0.00
2022-10-14T03:43:03.348Z,0.00
2022-10-14T03:44:03.348Z,0.00
2022-10-14T03:45:03.332Z,0.00
2022-10-14T03:46:03.309Z,0.00
2022-10-14T03:47:03.299Z,0.00
2022-10-14T03:48:03.286Z,0.00
2022-10-14T03:49:03.281Z,0.00
2022-10-14T03:50:03.291Z,0.00
2022-10-14T03:51:03.258Z,0.00
2022-10-14T03:52:03.242Z,0.00
2022-10-14T03:53:03.237Z,0.00
2022-10-14T03:54:03.223Z,0.00
2022-10-14T03:55:03.221Z,0.00
2022-10-14T03:56:03.199Z,0.00
2022-10-14T03:57:03.192Z,0.00
2022-10-14T03:58:03.177Z,0.00
2022-10-14T03:59:03.224Z,0.00
2022-10-14T04:00:03.200Z,0.00
2022-10-14T04:01:03.149Z,0.00
2022-10-14T04:02:03.218Z,0.00
2022-10-14T04:03:03.123Z,0.00
2022-10-14T04:04:03.121Z,0.00
2022-10-14T04:05:03.113Z,0.00
2022-10-14T04:06:03.089Z,0.00
2022-10-14T04:07:03.082Z,0.00
2022-10-14T04:08:03.072Z,0.00
2022-10-14T04:09:03.068Z,0.00
2022-10-14T04:10:03.050Z,0.00
2022-10-14T04:11:03.037Z,0.00
2022-10-14T04:12:03.042Z,0.00
2022-10-14T04:13:03.015Z,0.00
2022-10-14T04:14:03.016Z,0.00
2022-10-14T04:15:02.993Z,0.00
2022-10-14T04:16:02.996Z,0.00
2022-10-14T04:17:02.972Z,0.00
2022-10-14T04:18:02.959Z,0.00
2022-10-14T04:19:03.063Z,0.00
2022-10-14T04:20:02.942Z,0.00
2022-10-14T04:21:02.927Z,0.00
2022-10-14T04:22:02.924Z,0.00
2022-10-14T04:23:02.905Z,0.00
2022-10-14T04:24:08.006Z,0.00
2022-10-14T04:25:03.882Z,0.00
2022-10-14T04:26:02.872Z,0.00
2022-10-14T04:27:02.863Z,0.00
2022-10-14T04:28:02.850Z,0.00
2022-10-14T04:29:02.958Z,0.00
2022-10-14T04:30:02.830Z,0.00
2022-10-14T04:31:02.817Z,0.00
2022-10-14T04:32:02.829Z,0.00
2022-10-14T04:33:02.796Z,0.00
2022-10-14T04:34:02.797Z,0.00
2022-10-14T04:35:02.775Z,0.00
2022-10-14T04:36:02.764Z,0.00
2022-10-14T04:37:02.752Z,0.00
2022-10-14T04:38:02.740Z,0.00
2022-10-14T04:39:02.744Z,0.00
2022-10-14T04:40:02.719Z,0.00
2022-10-14T04:41:02.711Z,0.00
2022-10-14T04:42:02.701Z,0.00
2022-10-14T04:43:02.688Z,0.00
2022-10-14T04:44:02.688Z,0.00
2022-10-14T04:45:02.669Z,0.00
2022-10-14T04:46:02.657Z,0.00
2022-10-14T04:47:02.644Z,0.00
2022-10-14T04:48:02.650Z,0.00
2022-10-14T04:49:02.631Z,0.00
2022-10-14T04:50:02.609Z,0.00
2022-10-14T04:51:02.601Z,0.00
2022-10-14T04:52:02.588Z,0.00
2022-10-14T04:53:02.579Z,0.00
2022-10-14T04:54:02.576Z,0.00
2022-10-14T04:55:02.557Z,0.00
2022-10-14T04:56:02.544Z,0.00
2022-10-14T04:57:02.536Z,0.00
2022-10-14T04:58:02.523Z,0.00
2022-10-14T04:59:02.529Z,0.00
2022-10-14T05:00:02.500Z,0.00
2022-10-14T05:01:02.491Z,4.00
2022-10-14T05:02:02.602Z,4.00
2022-10-14T05:03:02.476Z,4.00
2022-10-14T05:04:02.475Z,4.00
2022-10-14T05:05:02.460Z,0.00
2022-10-14T05:06:02.434Z,4.00
2022-10-14T05:07:02.430Z,4.00
2022-10-14T05:08:02.416Z,4.00
2022-10-14T05:09:02.408Z,4.00
2022-10-14T05:10:02.549Z,4.00
2022-10-14T05:11:02.385Z,8.00
2022-10-14T05:12:02.382Z,8.00
2022-10-14T05:13:02.365Z,8.00
2022-10-14T05:14:02.347Z,8.00
2022-10-14T05:15:02.362Z,8.00
2022-10-14T05:16:02.327Z,12.00
2022-10-14T05:17:02.371Z,12.00
2022-10-14T05:18:02.303Z,16.00
2022-10-14T05:19:02.294Z,16.00
2022-10-14T05:20:02.316Z,20.00
2022-10-14T05:21:02.273Z,24.00
2022-10-14T05:22:02.297Z,24.00
2022-10-14T05:23:02.251Z,28.00
2022-10-14T05:24:02.239Z,28.00
2022-10-14T05:25:02.242Z,32.00
2022-10-14T05:26:02.230Z,36.00
2022-10-14T05:27:02.207Z,36.00
2022-10-14T05:28:02.196Z,40.00
2022-10-14T05:29:02.235Z,44.00
2022-10-14T05:30:02.185Z,52.00
2022-10-14T05:31:02.167Z,56.00
2022-10-14T05:32:02.150Z,60.00
2022-10-14T05:33:02.144Z,64.00
2022-10-14T05:34:02.127Z,68.00
2022-10-14T05:35:02.134Z,72.00
2022-10-14T05:36:02.134Z,80.00
2022-10-14T05:37:02.102Z,92.00
2022-10-14T05:38:04.383Z,100.00
2022-10-14T05:39:02.078Z,112.00
2022-10-14T05:40:02.074Z,124.00
2022-10-14T05:41:02.054Z,140.00
2022-10-14T05:42:02.041Z,152.00
2022-10-14T05:43:02.030Z,172.00
2022-10-14T05:44:02.021Z,188.00
2022-10-14T05:45:02.032Z,208.00
2022-10-14T05:46:02.001Z,228.00
2022-10-14T05:47:01.988Z,244.00
2022-10-14T05:48:01.976Z,260.00
2022-10-14T05:49:01.967Z,268.00
2022-10-14T05:50:01.980Z,284.00
2022-10-14T05:51:01.945Z,288.00
2022-10-14T05:52:01.955Z,296.00
2022-10-14T05:53:01.924Z,304.00
2022-10-14T05:54:01.914Z,312.00
2022-10-14T05:55:01.912Z,320.00
2022-10-14T05:56:01.895Z,340.00
2022-10-14T05:57:01.878Z,408.00
2022-10-14T05:58:01.868Z,380.00
2022-10-14T05:59:01.858Z,384.00
2022-10-14T06:00:01.863Z,496.00
2022-10-14T06:01:01.834Z,508.00
2022-10-14T06:02:01.825Z,416.00
2022-10-14T06:03:01.858Z,380.00
2022-10-14T06:04:01.813Z,380.00
2022-10-14T06:05:01.800Z,396.00
2022-10-14T06:06:01.784Z,416.00
2022-10-14T06:07:01.770Z,432.00
2022-10-14T06:08:01.779Z,452.00
2022-10-14T06:09:01.752Z,472.00
2022-10-14T06:10:01.803Z,508.00
2022-10-14T06:11:01.726Z,536.00
2022-10-14T06:12:01.736Z,560.00
2022-10-14T06:13:01.706Z,580.00
2022-10-14T06:14:01.696Z,592.00
2022-10-14T06:15:01.693Z,604.00
2022-10-14T06:16:01.675Z,612.00
2022-10-14T06:17:01.663Z,612.00
2022-10-14T06:18:01.653Z,616.00
2022-10-14T06:19:01.643Z,628.00
2022-10-14T06:20:01.655Z,636.00
2022-10-14T06:21:01.619Z,648.00
2022-10-14T06:22:01.610Z,652.00
2022-10-14T06:23:01.597Z,656.00
2022-10-14T06:24:01.605Z,660.00
2022-10-14T06:25:04.194Z,664.00
2022-10-14T06:26:01.568Z,668.00
2022-10-14T06:27:01.555Z,676.00
2022-10-14T06:28:01.546Z,680.00
2022-10-14T06:29:01.625Z,684.00
2022-10-14T06:30:01.550Z,692.00
2022-10-14T06:31:01.511Z,700.00
2022-10-14T06:32:01.503Z,704.00
2022-10-14T06:33:01.492Z,712.00
2022-10-14T06:34:01.481Z,720.00
2022-10-14T06:35:01.481Z,736.00
2022-10-14T06:36:01.459Z,756.00
2022-10-14T06:37:02.539Z,772.00
2022-10-14T06:38:01.437Z,796.00
2022-10-14T06:39:01.426Z,804.00
2022-10-14T06:40:01.457Z,804.00
2022-10-14T06:41:01.405Z,812.00
2022-10-14T06:42:01.396Z,816.00
2022-10-14T06:43:01.381Z,828.00
2022-10-14T06:44:01.373Z,844.00
2022-10-14T06:45:01.373Z,860.00
2022-10-14T06:46:01.351Z,868.00
2022-10-14T06:47:01.340Z,884.00
2022-10-14T06:48:01.331Z,900.00
2022-10-14T06:49:01.318Z,920.00
2022-10-14T06:50:01.333Z,948.00
2022-10-14T06:51:01.295Z,988.00
2022-10-14T06:52:01.289Z,1032.00
2022-10-14T06:53:01.275Z,1072.00
2022-10-14T06:54:01.264Z,1116.00
2022-10-14T06:55:01.262Z,1160.00
2022-10-14T06:56:01.273Z,1208.00
2022-10-14T06:57:01.233Z,1252.00
2022-10-14T06:58:01.223Z,1300.00
2022-10-14T06:59:01.216Z,1372.00
2022-10-14T07:00:01.211Z,1448.00
2022-10-14T07:01:01.198Z,1532.00
2022-10-14T07:02:01.229Z,1592.00
2022-10-14T07:03:01.169Z,1616.00
2022-10-14T07:04:01.608Z,1628.00
2022-10-14T07:05:01.158Z,1668.00
2022-10-14T07:06:01.138Z,1732.00
2022-10-14T07:07:01.123Z,1820.00
2022-10-14T07:09:01.109Z,1992.00
2022-10-14T07:10:01.091Z,2012.00
2022-10-14T07:11:01.079Z,1968.00
2022-10-14T07:12:01.097Z,1904.00
2022-10-14T07:13:01.059Z,1844.00
2022-10-14T07:14:01.065Z,1808.00
2022-10-14T07:15:01.037Z,1796.00
2022-10-14T07:16:01.025Z,1808.00
2022-10-14T07:17:01.051Z,1828.00
2022-10-14T07:18:01.007Z,1848.00
2022-10-14T07:19:01.025Z,1880.00
2022-10-14T07:20:01.010Z,1924.00
2022-10-14T07:21:00.968Z,1960.00
2022-10-14T07:22:00.960Z,1984.00
2022-10-14T07:23:00.966Z,2004.00
2022-10-14T07:24:00.942Z,2028.00
2022-10-14T07:25:00.936Z,2028.00
2022-10-14T07:26:00.918Z,2040.00
2022-10-14T07:27:00.904Z,2040.00
2022-10-14T07:28:00.916Z,2028.00
2022-10-14T07:29:00.970Z,1996.00
2022-10-14T07:30:00.893Z,1920.00
2022-10-14T07:31:00.860Z,1820.00
2022-10-14T07:32:00.855Z,1716.00
2022-10-14T07:33:00.839Z,1628.00
2022-10-14T07:34:00.829Z,1544.00
2022-10-14T07:35:00.830Z,1520.00
2022-10-14T07:36:00.869Z,1572.00
2022-10-14T07:37:00.803Z,1500.00
2022-10-14T07:38:00.840Z,1508.00
2022-10-14T07:39:00.774Z,1536.00
2022-10-14T07:40:00.780Z,1580.00
2022-10-14T07:41:00.753Z,1640.00
2022-10-14T07:42:00.743Z,1684.00
2022-10-14T07:43:00.730Z,1764.00
2022-10-14T07:44:00.750Z,1880.00
2022-10-14T07:45:00.721Z,2032.00
2022-10-14T07:46:00.701Z,2192.00
2022-10-14T07:47:00.690Z,2356.00
2022-10-14T07:48:00.677Z,2528.00
2022-10-14T07:49:00.667Z,2724.00
2022-10-14T07:50:00.666Z,2948.00
2022-10-14T07:51:00.647Z,3192.00
2022-10-14T07:52:00.640Z,3488.00
2022-10-14T07:53:01.582Z,3768.00
2022-10-14T07:54:00.614Z,4028.00
2022-10-14T07:55:00.623Z,4248.00
2022-10-14T07:56:00.593Z,4432.00
2022-10-14T07:57:00.590Z,4624.00
2022-10-14T07:58:00.572Z,4724.00
2022-10-14T07:59:00.561Z,4664.00
2022-10-14T08:00:00.626Z,4612.00
2022-10-14T08:01:00.548Z,4656.00
2022-10-14T08:02:00.592Z,4896.00
2022-10-14T08:03:00.520Z,5328.00
2022-10-14T08:04:00.530Z,5764.00
2022-10-14T08:05:18.954Z,6244.00
2022-10-14T08:06:01.483Z,6404.00
2022-10-14T08:07:08.505Z,6856.00
2022-10-14T08:08:00.473Z,7308.00
2022-10-14T08:09:00.455Z,8084.00
2022-10-14T08:10:00.515Z,9852.00
2022-10-14T08:11:00.433Z,10816.00
2022-10-14T08:12:00.441Z,10828.00
2022-10-14T08:13:00.424Z,19104.00
2022-10-14T08:14:00.407Z,12312.00
2022-10-14T08:15:00.420Z,11836.00
2022-10-14T08:16:00.403Z,24000.00
2022-10-14T08:17:00.378Z,12216.00
2022-10-14T08:18:00.364Z,11852.00
2022-10-14T08:19:00.352Z,12744.00
2022-10-14T08:20:00.365Z,13072.00
2022-10-14T08:21:00.329Z,21504.00
2022-10-14T08:22:00.318Z,16800.00
2022-10-14T08:23:00.315Z,22752.00
2022-10-14T08:24:00.318Z,18176.00
2022-10-14T08:25:00.288Z,15636.00
2022-10-14T08:26:00.274Z,16864.00
2022-10-14T08:27:00.309Z,14544.00
2022-10-14T08:28:00.255Z,22208.00
2022-10-14T08:29:00.254Z,23072.00
2022-10-14T08:30:00.246Z,33440.00
2022-10-14T08:31:00.237Z,21696.00
2022-10-14T08:32:00.286Z,20768.00
2022-10-14T08:33:00.198Z,23616.00
2022-10-14T08:34:00.237Z,41600.00
2022-10-14T08:35:00.173Z,42400.00
2022-10-14T08:36:00.166Z,45824.00
2022-10-14T08:37:00.237Z,51136.00
2022-10-14T08:38:00.158Z,45824.00
2022-10-14T08:39:00.245Z,35424.00
2022-10-14T08:40:00.145Z,35744.00
2022-10-14T08:41:00.115Z,34752.00
2022-10-14T08:42:00.116Z,26752.00
2022-10-14T08:43:00.106Z,26112.00
2022-10-14T08:44:00.113Z,28096.00
2022-10-14T08:45:00.083Z,16836.00
2022-10-14T08:46:00.073Z,22400.00
2022-10-14T08:47:00.060Z,22016.00
2022-10-14T08:48:00.076Z,16612.00
2022-10-14T08:49:00.049Z,28640.00
2022-10-14T08:50:00.014Z,29344.00
2022-10-14T08:51:00.020Z,39008.00
2022-10-14T08:51:59.989Z,25536.00
2022-10-14T08:52:59.987Z,36544.00
2022-10-14T08:54:00.005Z,39168.00
2022-10-14T08:54:59.959Z,33856.00
2022-10-14T08:55:59.967Z,44768.00
2022-10-14T08:57:00.035Z,33952.00
2022-10-14T08:58:00.008Z,31680.00
2022-10-14T08:58:59.947Z,39168.00
2022-10-14T08:59:59.908Z,23712.00
2022-10-14T09:00:59.929Z,58144.00
2022-10-14T09:01:59.881Z,87488.00
2022-10-14T09:02:59.938Z,56480.00
2022-10-14T09:03:59.958Z,19648.00
2022-10-14T09:04:59.850Z,25728.00
2022-10-14T09:05:59.843Z,16928.00
2022-10-14T09:06:59.830Z,18816.00
2022-10-14T09:07:59.837Z,28800.00
2022-10-14T09:08:59.828Z,21216.00
2022-10-14T09:09:59.802Z,69664.00
2022-10-14T09:10:59.787Z,21120.00
2022-10-14T09:11:59.783Z,18624.00
2022-10-14T09:12:59.767Z,19616.00
2022-10-14T09:13:59.762Z,19488.00
2022-10-14T09:14:59.801Z,21856.00
2022-10-14T09:15:59.742Z,26336.00
2022-10-14T09:16:59.782Z,25600.00
2022-10-14T09:17:59.767Z,50464.00
2022-10-14T09:18:59.710Z,50784.00
2022-10-14T09:19:59.726Z,43616.00
2022-10-14T09:20:59.683Z,27776.00
2022-10-14T09:21:59.684Z,31360.00
2022-10-14T09:22:59.664Z,24928.00
2022-10-14T09:23:59.657Z,66208.00
2022-10-14T09:24:59.682Z,71168.00
2022-10-14T09:25:59.627Z,74592.00
2022-10-14T09:26:59.624Z,59264.00
2022-10-14T09:27:59.608Z,53216.00
2022-10-14T09:28:59.636Z,34784.00
2022-10-14T09:29:59.609Z,37152.00
2022-10-14T09:30:59.574Z,27584.00
2022-10-14T09:31:59.572Z,22368.00
2022-10-14T09:32:59.564Z,12592.00
2022-10-14T09:33:59.543Z,14476.00
2022-10-14T09:34:59.556Z,20000.00
2022-10-14T09:36:59.519Z,30592.00
2022-10-14T09:37:59.505Z,47872.00
2022-10-14T09:39:03.705Z,67360.00
2022-10-14T09:40:00.507Z,59232.00
2022-10-14T09:40:59.468Z,55520.00
2022-10-14T09:41:59.468Z,78144.00
2022-10-14T09:42:59.450Z,73600.00
2022-10-14T09:43:59.439Z,53728.00
2022-10-14T09:44:59.503Z,78464.00
2022-10-14T09:45:59.430Z,40192.00
2022-10-14T09:46:59.405Z,42944.00
2022-10-14T09:47:59.405Z,34144.00
2022-10-14T09:48:59.389Z,33344.00
2022-10-14T09:49:59.424Z,35552.00
2022-10-14T09:50:59.365Z,30944.00
2022-10-14T09:51:59.369Z,25216.00
2022-10-14T09:52:59.353Z,27936.00
2022-10-14T09:53:59.437Z,36640.00
2022-10-14T09:54:59.343Z,46240.00
2022-10-14T09:55:59.322Z,31904.00
2022-10-14T09:56:59.308Z,42912.00
2022-10-14T09:57:59.294Z,40864.00
2022-10-14T09:58:59.279Z,47456.00
2022-10-14T09:59:59.321Z,32768.00
2022-10-14T10:00:59.260Z,25184.00
2022-10-14T10:01:59.246Z,26336.00
2022-10-14T10:02:59.243Z,23488.00
2022-10-14T10:03:59.461Z,22976.00
2022-10-14T10:04:59.252Z,29760.00
2022-10-14T10:05:59.210Z,16512.00
2022-10-14T10:06:59.204Z,15756.00
2022-10-14T10:07:59.221Z,14528.00
2022-10-14T10:08:59.183Z,13236.00
2022-10-14T10:09:59.184Z,11840.00
2022-10-14T10:11:03.637Z,14824.00
2022-10-14T10:12:00.140Z,14496.00
2022-10-14T10:12:59.130Z,12444.00
2022-10-14T10:13:59.138Z,12236.00
2022-10-14T10:14:59.146Z,12244.00
2022-10-14T10:15:59.106Z,12864.00
2022-10-14T10:16:59.110Z,12556.00
2022-10-14T10:17:59.077Z,13232.00
2022-10-14T10:18:59.077Z,14092.00
2022-10-14T10:19:59.109Z,13052.00
2022-10-14T10:20:59.051Z,13592.00
2022-10-14T10:21:59.050Z,12480.00
2022-10-14T10:22:59.030Z,10996.00
2022-10-14T10:23:59.041Z,9840.00
2022-10-14T10:24:59.036Z,9308.00
2022-10-14T10:25:58.996Z,9176.00
2022-10-14T10:26:58.993Z,9352.00
2022-10-14T10:27:58.970Z,9268.00
2022-10-14T10:28:59.029Z,9136.00
2022-10-14T10:29:58.963Z,8980.00
2022-10-14T10:30:58.940Z,9056.00
2022-10-14T10:31:58.932Z,9240.00
2022-10-14T10:32:58.917Z,9500.00
2022-10-14T10:33:58.907Z,9584.00
2022-10-14T10:34:58.983Z,9788.00
2022-10-14T10:35:58.886Z,10004.00
2022-10-14T10:36:58.873Z,10248.00
2022-10-14T10:37:58.863Z,10444.00
2022-10-14T10:38:58.867Z,10740.00
2022-10-14T10:39:58.919Z,11668.00
2022-10-14T10:40:58.827Z,10960.00
2022-10-14T10:41:58.837Z,11440.00
2022-10-14T10:42:58.805Z,11104.00
2022-10-14T10:43:58.795Z,10544.00
2022-10-14T10:44:58.875Z,10064.00
2022-10-14T10:45:58.769Z,10124.00
2022-10-14T10:46:58.905Z,10320.00
2022-10-14T10:47:58.756Z,9356.00
2022-10-14T10:48:58.743Z,9200.00
2022-10-14T10:49:58.768Z,9064.00
2022-10-14T10:50:58.718Z,9008.00
2022-10-14T10:51:58.703Z,8880.00
2022-10-14T10:52:58.697Z,8712.00
2022-10-14T10:53:58.700Z,8484.00
2022-10-14T10:54:58.727Z,8188.00
2022-10-14T10:55:58.684Z,7996.00
2022-10-14T10:56:58.670Z,7904.00
2022-10-14T10:57:58.653Z,7884.00
2022-10-14T10:58:58.654Z,7764.00
2022-10-14T10:59:58.644Z,7540.00
2022-10-14T11:00:58.617Z,7360.00
2022-10-14T11:01:58.607Z,7108.00
2022-10-14T11:02:58.592Z,6564.00
2022-10-14T11:03:58.584Z,6100.00
2022-10-14T11:04:58.578Z,5720.00
2022-10-14T11:05:58.557Z,5280.00
2022-10-14T11:06:58.557Z,4964.00
2022-10-14T11:07:58.536Z,4724.00
2022-10-14T11:08:58.534Z,4588.00
2022-10-14T11:09:58.532Z,4496.00
2022-10-14T11:10:58.506Z,4524.00
2022-10-14T11:11:58.515Z,4688.00
2022-10-14T11:12:58.483Z,4972.00
2022-10-14T11:13:58.467Z,5088.00
2022-10-14T11:14:58.483Z,5352.00
2022-10-14T11:15:58.445Z,6332.00
2022-10-14T11:16:58.437Z,6996.00
2022-10-14T11:17:58.425Z,7728.00
2022-10-14T11:18:58.419Z,7072.00
2022-10-14T11:19:58.418Z,5824.00
2022-10-14T11:20:58.396Z,4972.00
2022-10-14T11:21:58.392Z,5568.00
2022-10-14T11:22:58.372Z,5956.00
2022-10-14T11:23:58.361Z,5268.00
2022-10-14T11:24:58.372Z,4808.00
2022-10-14T11:25:58.352Z,5004.00
2022-10-14T11:26:58.355Z,4964.00
2022-10-14T11:27:58.367Z,5708.00
2022-10-14T11:28:58.390Z,7528.00
2022-10-14T11:29:58.311Z,8060.00
2022-10-14T11:30:58.290Z,7336.00
2022-10-14T11:31:58.279Z,5856.00
2022-10-14T11:32:58.269Z,4808.00
2022-10-14T11:33:58.268Z,4864.00
2022-10-14T11:34:58.283Z,4816.00
2022-10-14T11:35:58.239Z,4648.00
2022-10-14T11:36:58.255Z,4108.00
2022-10-14T11:37:58.234Z,3852.00
2022-10-14T11:38:58.206Z,3560.00
2022-10-14T11:39:58.204Z,3744.00
2022-10-14T11:40:58.183Z,4740.00
2022-10-14T11:41:58.278Z,5232.00
2022-10-14T11:42:58.165Z,4516.00
2022-10-14T11:43:58.174Z,4512.00
2022-10-14T11:44:58.168Z,3864.00
2022-10-14T11:45:58.133Z,3956.00
2022-10-14T11:46:58.120Z,3280.00
2022-10-14T11:47:58.110Z,2636.00
2022-10-14T11:48:58.102Z,2348.00
2022-10-14T11:49:58.104Z,2164.00
2022-10-14T11:50:58.081Z,2024.00
2022-10-14T11:51:58.065Z,1988.00
2022-10-14T11:52:58.064Z,2204.00
2022-10-14T11:53:58.044Z,2588.00
2022-10-14T11:54:58.050Z,3228.00
2022-10-14T11:55:58.024Z,4240.00
2022-10-14T11:56:58.013Z,4736.00
2022-10-14T11:57:58.008Z,4828.00
2022-10-14T11:58:58.050Z,4708.00
2022-10-14T11:59:57.998Z,4412.00
2022-10-14T12:00:57.975Z,3980.00
2022-10-14T12:01:57.960Z,3808.00
2022-10-14T12:02:58.032Z,3720.00
2022-10-14T12:03:57.952Z,3656.00
2022-10-14T12:04:57.936Z,3996.00
2022-10-14T12:05:57.918Z,4192.00
2022-10-14T12:06:57.909Z,3888.00
2022-10-14T12:07:57.896Z,3492.00
2022-10-14T12:08:57.902Z,3004.00
2022-10-14T12:09:59.930Z,2560.00
2022-10-14T12:10:57.888Z,2336.00
2022-10-14T12:11:57.854Z,2176.00
2022-10-14T12:12:57.853Z,2028.00
2022-10-14T12:13:57.843Z,1924.00
2022-10-14T12:14:57.843Z,1948.00
2022-10-14T12:15:57.826Z,2048.00
2022-10-14T12:16:57.806Z,2116.00
2022-10-14T12:17:57.791Z,2104.00
2022-10-14T12:18:57.803Z,2196.00
2022-10-14T12:19:57.801Z,2676.00
2022-10-14T12:20:57.789Z,3248.00
2022-10-14T12:21:57.771Z,3608.00
2022-10-14T12:22:57.734Z,3780.00
2022-10-14T12:23:57.737Z,4064.00
2022-10-14T12:24:57.719Z,3932.00
2022-10-14T12:25:57.700Z,3500.00
2022-10-14T12:26:57.692Z,3196.00
2022-10-14T12:27:57.750Z,3332.00
2022-10-14T12:28:58.865Z,3500.00
2022-10-14T12:29:57.659Z,3412.00
2022-10-14T12:30:57.651Z,3120.00
2022-10-14T12:31:57.654Z,2888.00
2022-10-14T12:32:57.628Z,2760.00
2022-10-14T12:33:57.631Z,2592.00
2022-10-14T12:34:57.607Z,2448.00